createdAt,value
2019-03-10T00:02:00.303Z,100326.00
2019-03-10T00:04:30.641Z,100324.00
2019-03-10T00:07:01.079Z,100322.00
2019-03-10T00:09:31.420Z,100334.00
2019-03-10T00:12:02.234Z,100339.00
2019-03-10T00:14:32.867Z,100319.00
2019-03-10T00:17:03.168Z,100330.00
2019-03-10T00:19:33.480Z,100325.00
2019-03-10T00:22:03.978Z,100313.00
2019-03-10T00:24:34.321Z,100313.00
2019-03-10T00:27:04.723Z,100319.00
2019-03-10T00:29:35.692Z,100323.00
2019-03-10T00:32:05.960Z,100309.00
2019-03-10T00:34:36.228Z,100302.00
2019-03-10T00:37:06.930Z,100313.00
2019-03-10T00:40:38.062Z,100317.00
2019-03-10T00:44:16.673Z,100320.00
2019-03-10T00:48:04.192Z,100298.00
2019-03-10T00:51:19.856Z,100300.00
2019-03-10T00:53:50.465Z,100304.00
2019-03-10T00:56:20.736Z,100293.00
2019-03-10T00:58:51.262Z,100296.00
2019-03-10T01:01:21.552Z,100297.00
2019-03-10T01:03:51.669Z,100286.00
2019-03-10T01:06:21.897Z,100290.00
2019-03-10T01:08:52.236Z,100290.00
2019-03-10T01:11:23.074Z,100277.00
2019-03-10T01:13:53.441Z,100285.00
2019-03-10T01:16:23.779Z,100267.00
2019-03-10T01:18:59.134Z,100273.00
2019-03-10T01:21:30.222Z,100261.00
2019-03-10T01:24:00.809Z,100254.00
2019-03-10T01:26:31.224Z,100265.00
2019-03-10T01:29:01.765Z,100269.00
2019-03-10T01:32:03.013Z,100269.00
2019-03-10T01:35:06.301Z,100259.00
2019-03-10T01:37:37.109Z,100256.00
2019-03-10T01:40:07.662Z,100242.00
2019-03-10T01:42:38.319Z,100241.00
2019-03-10T01:45:10.582Z,100229.00
2019-03-10T01:47:40.996Z,100218.00
2019-03-10T01:50:13.347Z,100221.00
2019-03-10T01:52:43.707Z,100211.00
2019-03-10T01:55:14.014Z,100209.00
2019-03-10T01:57:44.242Z,100207.00
2019-03-10T02:00:17.288Z,100206.00
2019-03-10T02:02:47.350Z,100205.00
2019-03-10T02:05:17.696Z,100202.00
2019-03-10T02:07:48.025Z,100197.00
2019-03-10T02:10:18.275Z,100197.00
2019-03-10T02:12:48.435Z,100199.00
2019-03-10T02:15:19.021Z,100194.00
2019-03-10T02:17:49.264Z,100186.00
2019-03-10T02:20:19.784Z,100189.00
2019-03-10T02:22:50.091Z,100176.00
2019-03-10T02:25:20.674Z,100171.00
2019-03-10T02:27:51.402Z,100171.00
2019-03-10T02:30:21.547Z,100165.00
2019-03-10T02:32:51.961Z,100158.00
2019-03-10T02:35:22.146Z,100149.00
2019-03-10T02:37:52.381Z,100159.00
2019-03-10T02:40:22.858Z,100128.00
2019-03-10T02:42:53.425Z,100132.00
2019-03-10T02:45:23.934Z,100141.00
2019-03-10T02:47:54.140Z,100128.00
2019-03-10T02:50:24.479Z,100111.00
2019-03-10T02:52:54.781Z,100111.00
2019-03-10T02:55:25.036Z,100099.00
2019-03-10T02:57:55.396Z,100093.00
2019-03-10T03:00:25.695Z,100099.00
2019-03-10T03:02:55.859Z,100074.00
2019-03-10T03:05:26.066Z,100084.00
2019-03-10T03:07:56.590Z,100077.00
2019-03-10T03:10:27.058Z,100058.00
2019-03-10T03:12:57.617Z,100055.00
2019-03-10T03:15:27.902Z,100037.00
2019-03-10T03:17:57.984Z,100060.00
2019-03-10T03:20:28.435Z,100044.00
2019-03-10T03:22:58.745Z,100039.00
2019-03-10T03:25:29.122Z,100023.00
2019-03-10T03:27:59.545Z,100032.00
2019-03-10T03:30:30.024Z,100029.00
2019-03-10T03:33:00.277Z,100032.00
2019-03-10T03:35:53.590Z,100018.00
2019-03-10T03:38:58.218Z,100031.00
2019-03-10T03:41:28.791Z,100024.00
2019-03-10T03:43:59.343Z,100024.00
2019-03-10T03:46:30.278Z,100020.00
2019-03-10T03:49:00.710Z,100007.00
2019-03-10T03:51:30.951Z,99997.00
2019-03-10T03:54:01.568Z,99993.00
2019-03-10T03:56:32.032Z,99995.00
2019-03-10T03:59:02.019Z,99991.00
2019-03-10T04:01:40.072Z,99990.00
2019-03-10T04:04:10.420Z,99973.00
2019-03-10T04:06:41.129Z,99969.00
2019-03-10T04:09:11.285Z,99970.00
2019-03-10T04:11:41.402Z,99959.00
2019-03-10T04:14:11.688Z,99952.00
2019-03-10T04:16:41.968Z,99937.00
2019-03-10T04:19:12.461Z,99942.00
2019-03-10T04:21:42.723Z,99940.00
2019-03-10T04:24:13.019Z,99928.00
2019-03-10T04:26:43.648Z,99924.00
2019-03-10T04:29:14.194Z,99923.00
2019-03-10T04:31:44.528Z,99927.00
2019-03-10T04:34:14.761Z,99923.00
2019-03-10T04:36:44.950Z,99912.00
2019-03-10T04:39:15.124Z,99907.00
2019-03-10T04:41:45.331Z,99896.00
2019-03-10T04:44:15.799Z,99903.00
2019-03-10T04:46:46.212Z,99888.00
2019-03-10T04:49:16.667Z,99881.00
2019-03-10T04:51:46.904Z,99870.00
2019-03-10T04:54:19.309Z,99878.00
2019-03-10T04:57:04.819Z,99864.00
2019-03-10T04:59:34.997Z,99861.00
2019-03-10T05:02:05.284Z,99862.00
2019-03-10T05:04:35.605Z,99845.00
2019-03-10T05:07:05.905Z,99843.00
2019-03-10T05:09:36.025Z,99844.00
2019-03-10T05:12:06.719Z,99848.00
2019-03-10T05:14:36.900Z,99839.00
2019-03-10T05:17:07.191Z,99831.00
2019-03-10T05:19:37.608Z,99826.00
2019-03-10T05:22:07.883Z,99819.00
2019-03-10T05:24:38.108Z,99813.00
2019-03-10T05:27:08.479Z,99819.00
2019-03-10T05:29:38.784Z,99811.00
2019-03-10T05:32:09.216Z,99806.00
2019-03-10T05:34:39.764Z,99799.00
2019-03-10T05:37:10.270Z,99788.00
2019-03-10T05:39:40.366Z,99805.00
2019-03-10T05:42:10.546Z,99795.00
2019-03-10T05:44:40.607Z,99785.00
2019-03-10T05:47:10.896Z,99787.00
2019-03-10T05:49:41.135Z,99780.00
2019-03-10T05:52:11.746Z,99768.00
2019-03-10T05:54:42.502Z,99763.00
2019-03-10T05:57:12.749Z,99760.00
2019-03-10T05:59:42.955Z,99751.00
2019-03-10T06:02:13.104Z,99758.00
2019-03-10T06:04:43.417Z,99751.00
2019-03-10T06:07:13.844Z,99742.00
2019-03-10T06:09:44.259Z,99737.00
2019-03-10T06:12:14.738Z,99735.00
2019-03-10T06:14:45.474Z,99736.00
2019-03-10T06:17:15.644Z,99735.00
2019-03-10T06:19:46.707Z,99727.00
2019-03-10T06:22:16.959Z,99712.00
2019-03-10T06:24:47.364Z,99712.00
2019-03-10T06:27:17.889Z,99714.00
2019-03-10T06:29:48.208Z,99702.00
2019-03-10T06:32:18.286Z,99697.00
2019-03-10T06:34:48.687Z,99691.00
2019-03-10T06:37:19.213Z,99685.00
2019-03-10T06:39:49.417Z,99681.00
2019-03-10T06:42:20.246Z,99677.00
2019-03-10T06:44:50.724Z,99668.00
2019-03-10T06:47:20.840Z,99663.00
2019-03-10T06:49:50.866Z,99654.00
2019-03-10T06:52:21.165Z,99653.00
2019-03-10T06:54:51.684Z,99646.00
2019-03-10T06:57:22.123Z,99634.00
2019-03-10T06:59:52.736Z,99624.00
2019-03-10T07:02:23.211Z,99620.00
2019-03-10T07:04:53.546Z,99618.00
2019-03-10T07:07:23.712Z,99615.00
2019-03-10T07:09:54.042Z,99608.00
2019-03-10T07:12:24.358Z,99596.00
2019-03-10T07:14:54.611Z,99600.00
2019-03-10T07:17:24.945Z,99603.00
2019-03-10T07:19:55.203Z,99586.00
2019-03-10T07:22:25.645Z,99584.00
2019-03-10T07:24:56.356Z,99578.00
2019-03-10T07:27:32.378Z,99578.00
2019-03-10T07:30:09.043Z,99573.00
2019-03-10T07:32:45.019Z,99566.00
2019-03-10T07:35:33.404Z,99552.00
2019-03-10T07:38:13.788Z,99556.00
2019-03-10T07:40:52.537Z,99549.00
2019-03-10T07:43:42.624Z,99552.00
2019-03-10T07:46:29.389Z,99549.00
2019-03-10T07:49:37.208Z,99552.00
2019-03-10T07:52:44.648Z,99554.00
2019-03-10T07:55:25.028Z,99545.00
2019-03-10T07:58:06.662Z,99553.00
2019-03-10T08:00:44.827Z,99542.00
2019-03-10T08:03:34.063Z,99520.00
2019-03-10T08:06:10.915Z,99539.00
2019-03-10T08:08:55.529Z,99516.00
2019-03-10T08:11:34.463Z,99516.00
2019-03-10T08:14:23.387Z,99512.00
2019-03-10T08:17:15.515Z,99502.00
2019-03-10T08:19:57.171Z,99494.00
2019-03-10T08:22:46.045Z,99490.00
2019-03-10T08:25:34.048Z,99486.00
2019-03-10T08:28:48.299Z,99481.00
2019-03-10T08:31:29.625Z,99466.00
2019-03-10T08:34:21.657Z,99468.00
2019-03-10T08:37:13.919Z,99474.00
2019-03-10T08:39:59.691Z,99462.00
2019-03-10T08:42:49.577Z,99451.00
2019-03-10T08:45:37.816Z,99448.00
2019-03-10T08:48:14.159Z,99437.00
2019-03-10T08:51:03.457Z,99441.00
2019-03-10T08:53:42.718Z,99432.00
2019-03-10T08:56:31.330Z,99430.00
2019-03-10T08:59:21.670Z,99426.00
2019-03-10T09:02:08.880Z,99427.00
2019-03-10T09:05:01.900Z,99407.00
2019-03-10T09:07:48.789Z,99400.00
2019-03-10T09:10:44.883Z,99383.00
2019-03-10T09:13:27.212Z,99378.00
2019-03-10T09:16:13.674Z,99357.00
2019-03-10T09:19:08.615Z,99366.00
2019-03-10T09:22:09.750Z,99344.00
2019-03-10T09:25:04.901Z,99341.00
2019-03-10T09:27:55.069Z,99327.00
2019-03-10T09:30:37.874Z,99326.00
2019-03-10T09:33:19.986Z,99322.00
2019-03-10T09:36:08.409Z,99317.00
2019-03-10T09:38:57.797Z,99308.00
2019-03-10T09:42:05.938Z,99298.00
2019-03-10T09:44:53.316Z,99304.00
2019-03-10T09:47:45.249Z,99293.00
2019-03-10T09:50:37.289Z,99288.00
2019-03-10T09:53:17.181Z,99280.00
2019-03-10T09:56:06.420Z,99266.00
2019-03-10T09:58:44.021Z,99261.00
2019-03-10T10:01:36.185Z,99249.00
2019-03-10T10:04:15.512Z,99252.00
2019-03-10T10:07:02.944Z,99235.00
2019-03-10T10:10:00.943Z,99222.00
2019-03-10T10:12:53.574Z,99229.00
2019-03-10T10:15:48.802Z,99236.00
2019-03-10T10:18:36.938Z,99222.00
2019-03-10T10:21:29.368Z,99220.00
2019-03-10T10:24:17.666Z,99213.00
2019-03-10T10:27:03.788Z,99212.00
2019-03-10T10:29:42.940Z,99201.00
2019-03-10T10:32:27.876Z,99196.00
2019-03-10T10:35:17.122Z,99193.00
2019-03-10T10:38:06.665Z,99188.00
2019-03-10T10:40:58.861Z,99186.00
2019-03-10T10:43:38.034Z,99172.00
2019-03-10T10:46:28.230Z,99155.00
2019-03-10T10:49:39.740Z,99161.00
2019-03-10T10:52:30.974Z,99167.00
2019-03-10T10:55:18.892Z,99149.00
2019-03-10T10:57:59.244Z,99135.00
2019-03-10T11:00:54.313Z,99138.00
2019-03-10T11:03:55.455Z,99134.00
2019-03-10T11:06:53.767Z,99122.00
2019-03-10T11:09:34.256Z,99126.00
2019-03-10T11:12:12.297Z,99114.00
2019-03-10T11:15:09.603Z,99119.00
2019-03-10T11:18:09.626Z,99097.00
2019-03-10T11:20:58.133Z,99097.00
2019-03-10T11:23:48.176Z,99095.00
2019-03-10T11:26:48.074Z,99085.00
2019-03-10T11:29:36.269Z,99084.00
2019-03-10T11:32:24.122Z,99088.00
2019-03-10T11:35:12.091Z,99081.00
2019-03-10T11:38:10.767Z,99063.00
2019-03-10T11:40:58.861Z,99050.00
2019-03-10T11:44:00.059Z,99049.00
2019-03-10T11:46:49.351Z,99054.00
2019-03-10T11:49:34.605Z,99040.00
2019-03-10T11:52:29.688Z,99025.00
2019-03-10T11:55:06.255Z,99026.00
2019-03-10T11:57:47.019Z,99016.00
2019-03-10T12:00:26.730Z,99016.00
2019-03-10T12:03:16.022Z,99007.00
2019-03-10T12:06:05.926Z,98985.00
2019-03-10T12:08:44.980Z,98977.00
2019-03-10T12:11:15.445Z,98978.00
2019-03-10T12:13:45.717Z,98968.00
2019-03-10T12:16:15.971Z,98989.00
2019-03-10T12:18:46.575Z,98974.00
2019-03-10T12:21:16.827Z,98972.00
2019-03-10T12:23:47.605Z,98946.00
2019-03-10T12:26:18.446Z,98941.00
2019-03-10T12:28:49.781Z,98938.00
2019-03-10T12:31:20.182Z,98941.00
2019-03-10T12:33:52.267Z,98936.00
2019-03-10T12:36:22.918Z,98943.00
2019-03-10T12:38:53.518Z,98925.00
2019-03-10T12:41:24.380Z,98938.00
2019-03-10T12:43:54.761Z,98929.00
2019-03-10T12:46:25.339Z,98929.00
2019-03-10T12:48:55.996Z,98925.00
2019-03-10T12:51:26.410Z,98916.00
2019-03-10T12:53:56.914Z,98918.00
2019-03-10T12:56:27.771Z,98916.00
2019-03-10T12:58:58.651Z,98902.00
2019-03-10T13:01:29.227Z,98896.00
2019-03-10T13:03:59.836Z,98886.00
2019-03-10T13:06:31.281Z,98862.00
2019-03-10T13:09:01.649Z,98865.00
2019-03-10T13:11:32.653Z,98849.00
2019-03-10T13:14:02.955Z,98861.00
2019-03-10T13:16:33.367Z,98860.00
2019-03-10T13:19:08.110Z,98848.00
2019-03-10T13:21:42.022Z,98846.00
2019-03-10T13:24:13.186Z,98829.00
2019-03-10T13:26:44.225Z,98826.00
2019-03-10T13:29:14.835Z,98826.00
2019-03-10T13:31:46.126Z,98826.00
2019-03-10T13:34:17.457Z,98822.00
2019-03-10T13:36:47.890Z,98814.00
2019-03-10T13:39:18.460Z,98816.00
2019-03-10T13:41:49.818Z,98813.00
2019-03-10T13:44:20.054Z,98807.00
2019-03-10T13:46:50.260Z,98804.00
2019-03-10T13:49:20.914Z,98800.00
2019-03-10T13:51:51.492Z,98791.00
2019-03-10T13:54:21.769Z,98788.00
2019-03-10T13:56:52.106Z,98778.00
2019-03-10T13:59:22.633Z,98779.00
2019-03-10T14:01:53.987Z,98774.00
2019-03-10T14:04:24.719Z,98734.00
2019-03-10T14:06:54.932Z,98743.00
2019-03-10T14:09:25.475Z,98756.00
2019-03-10T14:11:55.901Z,98734.00
2019-03-10T14:14:26.235Z,98737.00
2019-03-10T14:16:56.494Z,98742.00
2019-03-10T14:19:27.696Z,98732.00
2019-03-10T14:21:57.912Z,98734.00
2019-03-10T14:24:28.759Z,98729.00
2019-03-10T14:26:59.182Z,98741.00
2019-03-10T14:29:29.872Z,98743.00
2019-03-10T14:32:00.389Z,98758.00
2019-03-10T14:34:30.807Z,98794.00
2019-03-10T14:37:01.082Z,98805.00
2019-03-10T14:39:32.341Z,98824.00
2019-03-10T14:42:02.865Z,98851.00
2019-03-10T14:44:35.010Z,98828.00
2019-03-10T14:47:06.987Z,98829.00
2019-03-10T14:49:37.536Z,98810.00
2019-03-10T14:52:08.943Z,98847.00
2019-03-10T14:54:40.436Z,98834.00
2019-03-10T14:57:11.166Z,98829.00
2019-03-10T14:59:41.348Z,98835.00
2019-03-10T15:02:11.909Z,98845.00
2019-03-10T15:04:42.535Z,98854.00
2019-03-10T15:07:13.371Z,98846.00
2019-03-10T15:09:43.835Z,98852.00
2019-03-10T15:12:14.179Z,98839.00
2019-03-10T15:14:44.577Z,98864.00
2019-03-10T15:17:14.807Z,98867.00
2019-03-10T15:19:45.112Z,98874.00
2019-03-10T15:22:15.707Z,98863.00
2019-03-10T15:24:46.590Z,98863.00
2019-03-10T15:27:23.339Z,98880.00
2019-03-10T15:29:48.861Z,98866.00
2019-03-10T15:32:19.112Z,98896.00
2019-03-10T15:34:49.735Z,98904.00
2019-03-10T15:37:20.003Z,98925.00
2019-03-10T15:39:50.545Z,98919.00
2019-03-10T15:42:20.867Z,98934.00
2019-03-10T15:44:51.232Z,98944.00
2019-03-10T15:47:21.493Z,98962.00
2019-03-10T15:49:52.697Z,98967.00
2019-03-10T15:52:22.950Z,98993.00
2019-03-10T15:54:53.264Z,99009.00
2019-03-10T15:57:23.824Z,99028.00
2019-03-10T15:59:54.352Z,99048.00
2019-03-10T16:02:24.918Z,99073.00
2019-03-10T16:04:56.486Z,99084.00
2019-03-10T16:07:27.383Z,99103.00
2019-03-10T16:09:57.906Z,99119.00
2019-03-10T16:12:28.245Z,99128.00
2019-03-10T16:14:58.383Z,99154.00
2019-03-10T16:17:28.942Z,99172.00
2019-03-10T16:19:59.205Z,99199.00
2019-03-10T16:22:29.718Z,99220.00
2019-03-10T16:25:00.483Z,99241.00
2019-03-10T16:27:30.646Z,99280.00
2019-03-10T16:30:02.186Z,99268.00
2019-03-10T16:32:32.620Z,99311.00
2019-03-10T16:35:08.104Z,99326.00
2019-03-10T16:37:38.689Z,99346.00
2019-03-10T16:40:11.664Z,99368.00
2019-03-10T16:42:42.198Z,99412.00
2019-03-10T16:45:16.236Z,99431.00
2019-03-10T16:47:46.935Z,99441.00
2019-03-10T16:50:18.396Z,99491.00
2019-03-10T16:52:48.691Z,99523.00
2019-03-10T16:55:19.011Z,99547.00
2019-03-10T16:57:49.307Z,99593.00
2019-03-10T17:00:20.890Z,99601.00
2019-03-10T17:02:51.206Z,99617.00
2019-03-10T17:05:21.527Z,99637.00
2019-03-10T17:07:52.228Z,99650.00
2019-03-10T17:10:22.532Z,99664.00
2019-03-10T17:12:52.884Z,99686.00
2019-03-10T17:15:23.170Z,99693.00
2019-03-10T17:17:53.444Z,99715.00
2019-03-10T17:20:23.710Z,99735.00
2019-03-10T17:22:54.070Z,99746.00
2019-03-10T17:25:24.490Z,99764.00
2019-03-10T17:27:55.268Z,99777.00
2019-03-10T17:30:25.747Z,99791.00
2019-03-10T17:32:56.502Z,99797.00
2019-03-10T17:35:27.088Z,99804.00
2019-03-10T17:37:57.367Z,99823.00
2019-03-10T17:40:27.652Z,99825.00
2019-03-10T17:42:57.883Z,99836.00
2019-03-10T17:45:28.215Z,99869.00
2019-03-10T17:47:58.631Z,99871.00
2019-03-10T17:50:29.235Z,99866.00
2019-03-10T17:52:59.512Z,99887.00
2019-03-10T17:55:30.037Z,99884.00
2019-03-10T17:58:00.651Z,99893.00
2019-03-10T18:00:33.219Z,99896.00
2019-03-10T18:03:03.830Z,99906.00
2019-03-10T18:05:34.702Z,99914.00
2019-03-10T18:08:06.292Z,99917.00
2019-03-10T18:10:36.578Z,99924.00
2019-03-10T18:13:07.151Z,99926.00
2019-03-10T18:15:37.455Z,99931.00
2019-03-10T18:18:07.768Z,99953.00
2019-03-10T18:20:41.229Z,99955.00
2019-03-10T18:23:11.670Z,99974.00
2019-03-10T18:25:42.002Z,99976.00
2019-03-10T18:28:12.459Z,99970.00
2019-03-10T18:30:43.015Z,99973.00
2019-03-10T18:33:16.325Z,99972.00
2019-03-10T18:35:46.656Z,99978.00
2019-03-10T18:38:21.267Z,99976.00
2019-03-10T18:40:51.700Z,99983.00
2019-03-10T18:43:22.021Z,99986.00
2019-03-10T18:45:52.403Z,99991.00
2019-03-10T18:48:22.777Z,100002.00
2019-03-10T18:50:54.235Z,99993.00
2019-03-10T18:53:24.437Z,100006.00
2019-03-10T18:55:54.727Z,100011.00
2019-03-10T18:58:26.455Z,100023.00
2019-03-10T19:00:57.062Z,100018.00
2019-03-10T19:03:27.253Z,100029.00
2019-03-10T19:05:58.314Z,100039.00
2019-03-10T19:08:28.885Z,100038.00
2019-03-10T19:10:59.035Z,100046.00
2019-03-10T19:13:29.220Z,100046.00
2019-03-10T19:15:59.531Z,100049.00
2019-03-10T19:18:32.871Z,100056.00
2019-03-10T19:21:03.452Z,100068.00
2019-03-10T19:23:33.905Z,100075.00
2019-03-10T19:26:07.441Z,100077.00
2019-03-10T19:28:37.952Z,100081.00
2019-03-10T19:31:08.214Z,100087.00
2019-03-10T19:33:38.788Z,100093.00
2019-03-10T19:36:09.236Z,100096.00
2019-03-10T19:38:39.628Z,100102.00
2019-03-10T19:41:09.906Z,100112.00
2019-03-10T19:43:40.569Z,100116.00
2019-03-10T19:46:12.867Z,100102.00
2019-03-10T19:48:43.181Z,100101.00
2019-03-10T19:51:13.474Z,100099.00
2019-03-10T19:53:43.801Z,100105.00
2019-03-10T19:56:14.384Z,100106.00
2019-03-10T19:58:44.754Z,100106.00
2019-03-10T20:01:15.299Z,100099.00
2019-03-10T20:03:45.698Z,100094.00
2019-03-10T20:06:16.032Z,100099.00
2019-03-10T20:08:46.474Z,100101.00
2019-03-10T20:11:17.257Z,100083.00
2019-03-10T20:13:48.396Z,100061.00
2019-03-10T20:16:19.047Z,100097.00
2019-03-10T20:18:49.287Z,100103.00
2019-03-10T20:21:19.559Z,100097.00
2019-03-10T20:23:50.192Z,100114.00
2019-03-10T20:26:20.441Z,100127.00
2019-03-10T20:28:50.743Z,100148.00
2019-03-10T20:31:21.069Z,100144.00
2019-03-10T20:33:52.470Z,100133.00
2019-03-10T20:36:23.282Z,100137.00
2019-03-10T20:38:53.723Z,100141.00
2019-03-10T20:41:23.914Z,100127.00
2019-03-10T20:43:54.086Z,100142.00
2019-03-10T20:46:24.386Z,100146.00
2019-03-10T20:48:55.011Z,100139.00
2019-03-10T20:51:25.293Z,100148.00
2019-03-10T20:53:55.510Z,100143.00
2019-03-10T20:56:26.141Z,100144.00
2019-03-10T20:58:56.611Z,100148.00
2019-03-10T21:01:27.127Z,100159.00
2019-03-10T21:03:57.620Z,100148.00
2019-03-10T21:06:28.155Z,100137.00
2019-03-10T21:08:58.435Z,100155.00
2019-03-10T21:11:29.022Z,100165.00
2019-03-10T21:13:59.419Z,100165.00
2019-03-10T21:16:30.967Z,100173.00
2019-03-10T21:19:02.132Z,100184.00
2019-03-10T21:21:32.441Z,100196.00
2019-03-10T21:24:03.261Z,100193.00
2019-03-10T21:26:33.546Z,100193.00
2019-03-10T21:29:04.242Z,100189.00
2019-03-10T21:31:34.580Z,100193.00
2019-03-10T21:34:04.785Z,100198.00
2019-03-10T21:36:35.173Z,100185.00
2019-03-10T21:39:07.788Z,100189.00
2019-03-10T21:41:38.045Z,100207.00
2019-03-10T21:44:08.264Z,100202.00
2019-03-10T21:46:38.603Z,100204.00
2019-03-10T21:49:12.300Z,100199.00
2019-03-10T21:51:42.513Z,100212.00
2019-03-10T21:54:13.043Z,100218.00
2019-03-10T21:56:43.816Z,100210.00
2019-03-10T21:59:14.154Z,100204.00
2019-03-10T22:01:44.687Z,100197.00
2019-03-10T22:04:14.888Z,100203.00
2019-03-10T22:06:45.374Z,100214.00
2019-03-10T22:09:16.204Z,100208.00
2019-03-10T22:11:47.061Z,100218.00
2019-03-10T22:14:18.657Z,100214.00
2019-03-10T22:16:49.874Z,100209.00
2019-03-10T22:19:22.968Z,100225.00
2019-03-10T22:21:52.985Z,100213.00
2019-03-10T22:24:23.201Z,100211.00
2019-03-10T22:26:53.666Z,100208.00
2019-03-10T22:29:24.387Z,100210.00
2019-03-10T22:31:54.966Z,100203.00
2019-03-10T22:34:25.519Z,100211.00
2019-03-10T22:36:55.860Z,100208.00
2019-03-10T22:39:26.083Z,100221.00
2019-03-10T22:41:56.317Z,100213.00
2019-03-10T22:44:26.933Z,100211.00
2019-03-10T22:46:57.223Z,100221.00
2019-03-10T22:49:27.573Z,100201.00
2019-03-10T22:51:57.916Z,100227.00
2019-03-10T22:54:28.215Z,100232.00
2019-03-10T22:56:58.437Z,100225.00
2019-03-10T22:59:28.909Z,100241.00
2019-03-10T23:01:59.213Z,100226.00
2019-03-10T23:04:29.490Z,100219.00
2019-03-10T23:06:59.856Z,100202.00
2019-03-10T23:09:30.119Z,100217.00
2019-03-10T23:12:00.305Z,100217.00
2019-03-10T23:14:30.563Z,100214.00
2019-03-10T23:17:00.776Z,100224.00
2019-03-10T23:19:31.305Z,100211.00
2019-03-10T23:22:01.936Z,100213.00
2019-03-10T23:24:38.102Z,100225.00
2019-03-10T23:27:08.429Z,100217.00
2019-03-10T23:29:38.927Z,100218.00
2019-03-10T23:32:09.148Z,100213.00
2019-03-10T23:34:40.113Z,100212.00
2019-03-10T23:37:10.389Z,100218.00
2019-03-10T23:39:40.734Z,100223.00
2019-03-10T23:42:11.444Z,100218.00
2019-03-10T23:44:41.905Z,100209.00
2019-03-10T23:47:12.154Z,100202.00
2019-03-10T23:49:42.715Z,100220.00
2019-03-10T23:52:13.001Z,100220.00
2019-03-10T23:54:43.746Z,100215.00
2019-03-10T23:57:13.927Z,100213.00
2019-03-10T23:59:44.068Z,100210.00
